createdAt,value
2019-05-02T00:01:29.064Z,121.22
2019-05-02T00:03:58.952Z,112.80
2019-05-02T00:06:28.738Z,91.78
2019-05-02T00:08:58.561Z,96.55
2019-05-02T00:11:29.625Z,83.97
2019-05-02T00:13:59.857Z,97.10
2019-05-02T00:16:29.917Z,111.85
2019-05-02T00:18:59.749Z,118.22
2019-05-02T00:21:32.990Z,120.08
2019-05-02T00:24:03.011Z,136.92
2019-05-02T00:26:31.963Z,142.05
2019-05-02T00:29:01.880Z,125.58
2019-05-02T00:31:32.289Z,130.97
2019-05-02T00:34:03.419Z,135.63
2019-05-02T00:36:33.057Z,139.90
2019-05-02T00:39:02.444Z,138.18
2019-05-02T00:41:33.066Z,149.62
2019-05-02T00:44:06.005Z,117.35
2019-05-02T00:46:36.188Z,113.10
2019-05-02T00:49:06.119Z,136.47
2019-05-02T00:51:35.964Z,131.27
2019-05-02T00:54:05.495Z,142.60
2019-05-02T00:56:35.251Z,142.30
2019-05-02T00:59:07.360Z,142.72
2019-05-02T01:01:38.034Z,157.75
2019-05-02T01:04:15.257Z,152.75
2019-05-02T01:06:49.150Z,149.80
2019-05-02T01:09:16.683Z,153.68
2019-05-02T01:11:46.783Z,167.72
2019-05-02T01:14:17.970Z,106.10
2019-05-02T01:16:49.509Z,66.80
2019-05-02T01:19:19.016Z,98.80
2019-05-02T01:21:49.266Z,133.67
2019-05-02T01:24:19.006Z,137.28
2019-05-02T01:26:52.803Z,148.80
2019-05-02T01:29:24.903Z,168.75
2019-05-02T01:31:56.930Z,185.93
2019-05-02T01:34:40.411Z,174.32
2019-05-02T01:37:20.711Z,178.40
2019-05-02T01:39:46.355Z,156.82
2019-05-02T01:42:16.074Z,172.75
2019-05-02T01:44:45.522Z,168.10
2019-05-02T01:47:15.300Z,149.38
2019-05-02T01:49:45.225Z,164.80
2019-05-02T01:52:18.978Z,167.93
2019-05-02T01:54:47.582Z,189.67
2019-05-02T01:57:17.338Z,180.97
2019-05-02T01:59:47.285Z,152.07
2019-05-02T02:02:17.217Z,164.50
2019-05-02T02:04:46.669Z,137.12
2019-05-02T02:07:19.980Z,117.53
2019-05-02T02:09:48.148Z,114.37
2019-05-02T02:12:18.079Z,111.42
2019-05-02T02:14:48.163Z,95.87
2019-05-02T02:17:18.939Z,111.70
2019-05-02T02:19:56.112Z,135.78
2019-05-02T02:22:27.487Z,139.82
2019-05-02T02:25:00.974Z,115.28
2019-05-02T02:27:30.113Z,95.17
2019-05-02T02:29:59.959Z,93.35
2019-05-02T02:32:29.403Z,127.22
2019-05-02T02:35:03.489Z,129.95
2019-05-02T02:37:30.483Z,120.40
2019-05-02T02:40:00.827Z,91.37
2019-05-02T02:42:31.888Z,69.55
2019-05-02T02:45:03.268Z,109.80
2019-05-02T02:47:32.984Z,119.95
2019-05-02T02:50:05.143Z,131.90
2019-05-02T02:52:38.057Z,135.03
2019-05-02T02:55:06.659Z,178.23
2019-05-02T02:57:36.419Z,185.07
2019-05-02T03:00:10.932Z,189.97
2019-05-02T03:02:47.802Z,187.90
2019-05-02T03:05:10.443Z,167.95
2019-05-02T03:07:39.872Z,153.78
2019-05-02T03:10:09.671Z,156.25
2019-05-02T03:12:57.217Z,146.30
2019-05-02T03:15:29.784Z,150.10
2019-05-02T03:18:00.367Z,154.87
2019-05-02T03:20:40.128Z,164.22
2019-05-02T03:23:03.717Z,172.32
2019-05-02T03:25:50.105Z,160.48
2019-05-02T03:28:17.818Z,165.37
2019-05-02T03:30:38.031Z,155.90
2019-05-02T03:33:11.350Z,146.77
2019-05-02T03:35:44.096Z,134.12
2019-05-02T03:38:11.298Z,134.30
2019-05-02T03:40:41.350Z,157.32
2019-05-02T03:43:19.272Z,151.35
2019-05-02T03:45:44.383Z,150.93
2019-05-02T03:48:18.205Z,158.95
2019-05-02T03:50:45.504Z,154.53
2019-05-02T03:53:17.651Z,137.07
2019-05-02T03:55:47.241Z,199.50
2019-05-02T03:58:17.553Z,207.25
2019-05-02T04:00:47.343Z,200.95
2019-05-02T04:03:18.848Z,200.53
2019-05-02T04:05:48.734Z,187.07
2019-05-02T04:08:20.756Z,189.25
2019-05-02T04:10:59.413Z,168.40
2019-05-02T04:13:24.034Z,163.57
2019-05-02T04:15:53.606Z,180.27
2019-05-02T04:18:23.346Z,172.22
2019-05-02T04:20:53.545Z,149.00
2019-05-02T04:23:27.656Z,153.90
2019-05-02T04:25:55.644Z,178.23
2019-05-02T04:28:25.387Z,178.85
2019-05-02T04:30:55.145Z,167.35
2019-05-02T04:33:29.204Z,171.75
2019-05-02T04:35:59.319Z,175.97
2019-05-02T04:38:39.135Z,188.68
2019-05-02T04:40:59.742Z,192.30
2019-05-02T04:43:29.417Z,206.15
2019-05-02T04:46:00.291Z,194.65
2019-05-02T04:48:34.590Z,187.45
2019-05-02T04:51:10.406Z,189.97
2019-05-02T04:53:41.062Z,181.00
2019-05-02T04:56:06.919Z,189.90
2019-05-02T04:58:39.708Z,182.45
2019-05-02T05:01:09.906Z,182.72
2019-05-02T05:03:38.237Z,192.18
2019-05-02T05:06:12.292Z,192.60
2019-05-02T05:08:41.784Z,185.32
2019-05-02T05:11:13.883Z,190.75
2019-05-02T05:13:42.126Z,206.57
2019-05-02T05:16:15.517Z,203.83
2019-05-02T05:18:43.925Z,196.65
2019-05-02T05:21:14.258Z,197.00
2019-05-02T05:23:47.188Z,193.22
2019-05-02T05:26:17.518Z,195.72
2019-05-02T05:28:47.685Z,203.73
2019-05-02T05:31:23.861Z,213.60
2019-05-02T05:33:48.972Z,199.85
2019-05-02T05:36:20.050Z,196.90
2019-05-02T05:38:50.547Z,202.70
2019-05-02T05:41:23.237Z,183.50
2019-05-02T05:43:53.678Z,196.25
2019-05-02T05:46:23.991Z,184.32
2019-05-02T05:48:53.827Z,198.38
2019-05-02T05:51:24.730Z,201.02
2019-05-02T05:53:59.116Z,201.60
2019-05-02T05:56:27.403Z,187.97
2019-05-02T05:58:59.219Z,170.53
2019-05-02T06:01:34.088Z,177.68
2019-05-02T06:04:00.696Z,178.42
2019-05-02T06:06:30.838Z,185.95
2019-05-02T06:09:00.585Z,195.57
2019-05-02T06:11:30.681Z,190.35
2019-05-02T06:14:00.183Z,183.22
2019-05-02T06:16:29.959Z,182.32
2019-05-02T06:18:59.896Z,185.35
2019-05-02T06:21:31.131Z,187.77
2019-05-02T06:24:00.888Z,162.03
2019-05-02T06:26:30.344Z,152.68
2019-05-02T06:28:59.813Z,143.35
2019-05-02T06:31:29.546Z,153.40
2019-05-02T06:34:02.062Z,150.40
2019-05-02T06:36:31.993Z,151.02
2019-05-02T06:39:02.855Z,151.25
2019-05-02T06:41:32.509Z,155.90
2019-05-02T06:44:02.293Z,165.70
2019-05-02T06:46:31.812Z,152.50
2019-05-02T06:49:01.255Z,164.75
2019-05-02T06:51:30.920Z,175.82
2019-05-02T06:54:00.662Z,192.37
2019-05-02T06:56:31.341Z,170.38
2019-05-02T06:59:03.561Z,170.02
2019-05-02T07:01:34.097Z,192.07
2019-05-02T07:04:04.459Z,187.37
2019-05-02T07:06:41.929Z,192.68
2019-05-02T07:09:06.960Z,177.20
2019-05-02T07:11:39.019Z,196.37
2019-05-02T07:14:13.576Z,188.10
2019-05-02T07:16:41.738Z,187.92
2019-05-02T07:19:29.423Z,189.93
2019-05-02T07:22:04.035Z,183.30
2019-05-02T07:24:32.537Z,174.57
2019-05-02T07:27:02.710Z,175.38
2019-05-02T07:29:32.610Z,163.82
2019-05-02T07:32:02.042Z,163.65
2019-05-02T07:34:31.686Z,164.18
2019-05-02T07:37:01.137Z,152.82
2019-05-02T07:39:31.246Z,159.65
2019-05-02T07:42:05.890Z,162.40
2019-05-02T07:44:34.392Z,155.57
2019-05-02T07:47:04.749Z,162.97
2019-05-02T07:49:34.546Z,165.12
2019-05-02T07:52:04.423Z,147.43
2019-05-02T07:54:34.362Z,155.07
2019-05-02T07:57:04.185Z,155.72
2019-05-02T07:59:34.030Z,143.57
2019-05-02T08:02:04.032Z,151.12
2019-05-02T08:04:34.104Z,149.72
2019-05-02T08:07:03.863Z,142.25
2019-05-02T08:09:34.343Z,138.90
2019-05-02T08:12:07.504Z,144.43
2019-05-02T08:14:37.313Z,148.40
2019-05-02T08:17:15.849Z,148.68
2019-05-02T08:19:41.788Z,139.60
2019-05-02T08:22:13.480Z,137.47
2019-05-02T08:24:43.008Z,129.60
2019-05-02T08:27:18.098Z,141.55
2019-05-02T08:29:47.539Z,144.00
2019-05-02T08:32:19.253Z,136.72
2019-05-02T08:34:51.610Z,141.92
2019-05-02T08:37:20.531Z,197.00
2019-05-02T08:39:50.211Z,303.18
2019-05-02T08:42:20.336Z,162.72
2019-05-02T08:44:51.514Z,151.20
2019-05-02T08:47:23.838Z,152.55
2019-05-02T08:49:54.623Z,165.03
2019-05-02T08:52:24.804Z,159.12
2019-05-02T08:54:54.818Z,160.20
2019-05-02T08:57:25.032Z,162.80
2019-05-02T08:59:55.390Z,165.75
2019-05-02T09:02:27.360Z,167.18
2019-05-02T09:04:58.647Z,164.88
2019-05-02T09:07:31.666Z,168.80
2019-05-02T09:10:00.306Z,166.22
2019-05-02T09:12:31.999Z,157.03
2019-05-02T09:15:02.710Z,171.28
2019-05-02T09:17:38.278Z,165.10
2019-05-02T09:20:15.416Z,186.57
2019-05-02T09:22:41.733Z,173.10
2019-05-02T09:25:12.584Z,185.05
2019-05-02T09:27:42.627Z,183.15
2019-05-02T09:30:17.141Z,188.35
2019-05-02T09:32:46.061Z,190.73
2019-05-02T09:35:15.762Z,193.40
2019-05-02T09:37:45.445Z,197.62
2019-05-02T09:40:16.874Z,195.72
2019-05-02T09:42:47.602Z,193.55
2019-05-02T09:45:35.739Z,204.10
2019-05-02T09:48:05.160Z,201.00
2019-05-02T09:50:34.257Z,196.45
2019-05-02T09:53:02.941Z,193.60
2019-05-02T09:55:32.685Z,195.62
2019-05-02T09:58:05.150Z,205.62
2019-05-02T10:00:45.543Z,204.07
2019-05-02T10:03:16.327Z,191.50
2019-05-02T10:05:46.454Z,199.20
2019-05-02T10:08:16.177Z,195.18
2019-05-02T10:10:46.290Z,204.23
2019-05-02T10:13:16.340Z,177.72
2019-05-02T10:15:47.104Z,178.70
2019-05-02T10:18:19.650Z,174.72
2019-05-02T10:20:48.279Z,158.00
2019-05-02T10:23:19.599Z,174.27
2019-05-02T10:25:51.964Z,179.60
2019-05-02T10:28:22.913Z,168.52
2019-05-02T10:30:56.556Z,161.55
2019-05-02T10:33:27.881Z,172.80
2019-05-02T10:35:55.404Z,172.85
2019-05-02T10:38:24.955Z,164.45
2019-05-02T10:41:01.291Z,172.10
2019-05-02T10:43:27.170Z,179.95
2019-05-02T10:45:58.559Z,182.90
2019-05-02T10:48:29.027Z,181.35
2019-05-02T10:51:19.564Z,178.27
2019-05-02T10:53:52.634Z,161.18
2019-05-02T10:56:22.102Z,149.72
2019-05-02T10:58:52.367Z,155.57
2019-05-02T11:01:23.733Z,155.65
2019-05-02T11:03:54.873Z,166.30
2019-05-02T11:06:24.727Z,186.10
2019-05-02T11:08:54.754Z,198.70
2019-05-02T11:11:24.854Z,223.28
2019-05-02T11:14:05.699Z,222.78
2019-05-02T11:16:37.960Z,251.60
2019-05-02T11:19:13.063Z,223.43
2019-05-02T11:21:55.512Z,206.65
2019-05-02T11:24:14.787Z,181.72
2019-05-02T11:26:44.235Z,166.95
2019-05-02T11:29:13.860Z,143.97
2019-05-02T11:31:43.524Z,134.47
2019-05-02T11:34:13.582Z,121.28
2019-05-02T11:36:43.970Z,87.92
2019-05-02T11:39:24.624Z,93.35
2019-05-02T11:41:45.543Z,84.17
2019-05-02T11:44:15.094Z,76.12
2019-05-02T11:46:47.095Z,75.78
2019-05-02T11:49:16.762Z,79.92
2019-05-02T11:51:47.047Z,73.67
2019-05-02T11:54:18.123Z,53.75
2019-05-02T11:56:49.168Z,66.95
2019-05-02T11:59:22.586Z,60.25
2019-05-02T12:01:59.748Z,31.10
2019-05-02T12:04:26.675Z,31.95
2019-05-02T12:07:01.138Z,36.08
2019-05-02T12:09:27.966Z,38.65
2019-05-02T12:11:58.088Z,34.55
2019-05-02T12:14:34.585Z,44.63
2019-05-02T12:16:59.310Z,40.73
2019-05-02T12:19:29.054Z,44.88
2019-05-02T12:21:58.553Z,49.45
2019-05-02T12:24:28.270Z,50.33
2019-05-02T12:26:57.947Z,48.48
2019-05-02T12:29:27.385Z,54.75
2019-05-02T12:31:57.143Z,53.35
2019-05-02T12:34:27.152Z,51.77
2019-05-02T12:36:57.202Z,54.65
2019-05-02T12:39:26.851Z,55.30
2019-05-02T12:41:56.710Z,49.33
2019-05-02T12:44:26.722Z,53.10
2019-05-02T12:46:56.375Z,54.60
2019-05-02T12:49:27.995Z,58.42
2019-05-02T12:51:57.655Z,59.85
2019-05-02T12:54:27.589Z,56.70
2019-05-02T12:56:57.311Z,60.65
2019-05-02T12:59:27.006Z,60.48
2019-05-02T13:01:58.577Z,51.63
2019-05-02T13:04:28.914Z,54.58
2019-05-02T13:06:58.604Z,45.83
2019-05-02T13:09:28.244Z,51.08
2019-05-02T13:12:02.942Z,51.58
2019-05-02T13:14:32.702Z,43.38
2019-05-02T13:17:05.861Z,38.10
2019-05-02T13:19:40.158Z,46.10
2019-05-02T13:22:12.361Z,47.95
2019-05-02T13:24:46.952Z,47.67
2019-05-02T13:27:18.470Z,41.70
2019-05-02T13:29:49.767Z,45.08
2019-05-02T13:32:21.806Z,53.92
2019-05-02T13:35:08.610Z,42.03
2019-05-02T13:37:38.738Z,43.17
2019-05-02T13:40:17.269Z,42.17
2019-05-02T13:42:46.966Z,53.45
2019-05-02T13:45:21.761Z,38.75
2019-05-02T13:50:22.415Z,42.58
2019-05-02T13:52:57.696Z,33.85
2019-05-02T13:55:27.210Z,37.75
2019-05-02T13:57:57.060Z,36.65
2019-05-02T14:00:28.783Z,41.23
2019-05-02T14:02:58.884Z,43.05
2019-05-02T14:05:28.628Z,56.23
2019-05-02T14:08:12.294Z,62.00
2019-05-02T14:10:43.611Z,67.27
2019-05-02T14:13:13.341Z,62.67
2019-05-02T14:15:43.238Z,64.53
2019-05-02T14:18:13.982Z,63.95
2019-05-02T14:20:45.127Z,72.60
2019-05-02T14:23:14.861Z,80.40
2019-05-02T14:25:44.742Z,80.00
2019-05-02T14:28:14.355Z,80.40
2019-05-02T14:30:46.207Z,77.15
2019-05-02T14:33:17.251Z,86.17
2019-05-02T14:35:48.526Z,80.50
2019-05-02T14:38:18.635Z,68.17
2019-05-02T14:40:51.882Z,70.87
2019-05-02T14:43:46.178Z,76.22
2019-05-02T14:46:12.607Z,68.72
2019-05-02T14:48:45.353Z,75.60
2019-05-02T14:51:19.928Z,86.92
2019-05-02T14:53:47.314Z,77.82
2019-05-02T14:56:22.800Z,77.80
2019-05-02T14:58:52.983Z,72.92
2019-05-02T15:01:26.155Z,75.60
2019-05-02T15:03:58.343Z,65.92
2019-05-02T15:06:25.727Z,63.48
2019-05-02T15:08:55.233Z,71.12
2019-05-02T15:11:30.931Z,68.87
2019-05-02T15:13:57.310Z,63.83
2019-05-02T15:16:39.637Z,68.52
2019-05-02T15:18:58.620Z,68.78
2019-05-02T15:21:46.981Z,66.50
2019-05-02T15:24:14.758Z,75.25
2019-05-02T15:26:44.461Z,66.30
2019-05-02T15:29:19.970Z,59.90
2019-05-02T15:31:47.455Z,55.03
2019-05-02T15:34:41.900Z,51.98
2019-05-02T15:37:06.239Z,55.75
2019-05-02T15:42:07.106Z,53.50
2019-05-02T15:44:37.300Z,53.87
2019-05-02T15:47:07.239Z,54.90
2019-05-02T15:49:41.711Z,52.85
2019-05-02T15:52:12.563Z,45.58
2019-05-02T15:54:43.581Z,47.15
2019-05-02T15:57:18.938Z,44.10
2019-05-02T15:59:46.409Z,44.13
2019-05-02T16:02:22.175Z,46.65
2019-05-02T16:04:49.951Z,41.20
2019-05-02T16:07:19.521Z,42.03
2019-05-02T16:09:51.600Z,33.98
2019-05-02T16:12:22.196Z,39.35
2019-05-02T16:14:52.809Z,41.18
2019-05-02T16:17:25.615Z,43.25
2019-05-02T16:19:58.672Z,42.08
2019-05-02T16:22:28.881Z,41.70
2019-05-02T16:24:58.590Z,36.85
2019-05-02T16:27:44.737Z,37.13
2019-05-02T16:30:18.159Z,36.25
2019-05-02T16:32:52.213Z,39.67
2019-05-02T16:35:23.905Z,39.58
2019-05-02T16:37:56.050Z,28.02
2019-05-02T16:40:29.629Z,31.27
2019-05-02T16:42:57.655Z,25.97
2019-05-02T16:45:27.172Z,23.92
2019-05-02T16:47:59.096Z,25.97
2019-05-02T16:50:35.213Z,24.80
2019-05-02T16:52:59.503Z,28.47
2019-05-02T16:55:29.038Z,26.10
2019-05-02T16:58:02.681Z,26.30
2019-05-02T17:00:32.044Z,30.12
2019-05-02T17:03:03.787Z,20.88
2019-05-02T17:05:33.323Z,21.10
2019-05-02T17:08:18.507Z,17.77
2019-05-02T17:10:47.487Z,17.05
2019-05-02T17:13:17.489Z,15.25
2019-05-02T17:15:47.326Z,13.80
2019-05-02T17:18:18.344Z,13.70
2019-05-02T17:20:53.333Z,15.45
2019-05-02T17:23:19.823Z,15.18
2019-05-02T17:25:49.663Z,12.18
2019-05-02T17:28:22.189Z,13.53
2019-05-02T17:30:52.522Z,13.75
2019-05-02T17:33:22.131Z,14.60
2019-05-02T17:35:54.059Z,18.15
2019-05-02T17:38:27.340Z,13.38
2019-05-02T17:40:58.806Z,13.43
2019-05-02T17:43:25.865Z,19.90
2019-05-02T17:45:56.389Z,12.68
2019-05-02T17:48:26.124Z,14.33
2019-05-02T17:51:13.323Z,10.40
2019-05-02T17:53:49.579Z,13.15
2019-05-02T17:56:20.852Z,13.75
2019-05-02T17:58:53.449Z,17.15
2019-05-02T18:01:18.691Z,28.47
2019-05-02T18:03:49.861Z,24.15
2019-05-02T18:06:30.760Z,29.75
2019-05-02T18:08:55.127Z,27.25
2019-05-02T18:11:22.705Z,24.27
2019-05-02T18:13:52.438Z,21.65
2019-05-02T18:16:22.467Z,22.65
2019-05-02T18:18:52.250Z,22.82
2019-05-02T18:21:26.892Z,29.07
2019-05-02T18:23:57.171Z,29.45
2019-05-02T18:26:25.086Z,24.65
2019-05-02T18:28:57.262Z,26.00
2019-05-02T18:31:26.398Z,27.30
2019-05-02T18:33:56.052Z,26.87
2019-05-02T18:36:26.993Z,26.75
2019-05-02T18:39:00.611Z,34.08
2019-05-02T18:41:28.732Z,30.90
2019-05-02T18:43:59.583Z,25.30
2019-05-02T18:46:29.241Z,23.27
2019-05-02T18:48:59.079Z,25.08
2019-05-02T18:51:28.896Z,22.87
2019-05-02T18:54:04.573Z,18.52
2019-05-02T18:56:34.254Z,19.37
2019-05-02T18:59:02.659Z,19.52
2019-05-02T19:01:32.466Z,20.80
2019-05-02T19:04:02.210Z,17.90
2019-05-02T19:06:33.364Z,15.98
2019-05-02T19:09:06.773Z,18.10
2019-05-02T19:11:36.603Z,17.52
2019-05-02T19:14:06.643Z,14.23
2019-05-02T19:16:36.466Z,15.72
2019-05-02T19:19:06.567Z,14.25
2019-05-02T19:21:39.203Z,20.02
2019-05-02T19:24:07.418Z,15.63
2019-05-02T19:26:41.574Z,17.20
2019-05-02T19:29:14.304Z,20.02
2019-05-02T19:31:46.164Z,20.10
2019-05-02T19:34:16.932Z,18.48
2019-05-02T19:36:46.861Z,18.73
2019-05-02T19:39:16.466Z,18.73
2019-05-02T19:41:46.468Z,18.17
2019-05-02T19:44:21.405Z,16.25
2019-05-02T19:46:47.815Z,13.20
2019-05-02T19:49:17.665Z,16.95
2019-05-02T19:51:50.575Z,18.37
2019-05-02T19:54:18.450Z,17.52
2019-05-02T19:56:47.907Z,17.92
2019-05-02T19:59:24.507Z,16.15
2019-05-02T20:01:52.175Z,21.23
2019-05-02T20:04:22.227Z,20.90
2019-05-02T20:06:52.566Z,21.70
2019-05-02T20:09:22.357Z,18.50
2019-05-02T20:11:52.175Z,17.48
2019-05-02T20:14:22.510Z,19.32
2019-05-02T20:16:54.072Z,18.92
2019-05-02T20:19:26.895Z,16.97
2019-05-02T20:22:01.651Z,16.17
2019-05-02T20:24:49.142Z,18.60
2019-05-02T20:27:17.617Z,16.85
2019-05-02T20:29:47.257Z,19.55
2019-05-02T20:32:17.239Z,15.80
2019-05-02T20:34:47.170Z,14.80
2019-05-02T20:37:17.062Z,17.32
2019-05-02T20:39:46.887Z,18.80
2019-05-02T20:42:16.936Z,16.62
2019-05-02T20:44:46.699Z,20.20
2019-05-02T20:47:19.414Z,17.20
2019-05-02T20:49:48.975Z,16.60
2019-05-02T20:52:21.753Z,19.10
2019-05-02T20:54:52.642Z,19.73
2019-05-02T20:57:22.439Z,15.68
2019-05-02T20:59:52.893Z,16.77
2019-05-02T21:02:22.684Z,20.32
2019-05-02T21:04:52.556Z,21.90
2019-05-02T21:07:23.869Z,19.12
2019-05-02T21:10:03.923Z,16.85
2019-05-02T21:12:33.843Z,21.15
2019-05-02T21:15:05.659Z,18.25
2019-05-02T21:17:35.478Z,18.70
2019-05-02T21:20:06.963Z,24.52
2019-05-02T21:22:36.739Z,24.77
2019-05-02T21:25:07.543Z,18.48
2019-05-02T21:27:37.106Z,23.87
2019-05-02T21:30:09.667Z,20.85
2019-05-02T21:32:39.413Z,23.67
2019-05-02T21:35:11.851Z,20.72
2019-05-02T21:37:42.454Z,23.07
2019-05-02T21:40:12.803Z,22.32
2019-05-02T21:42:42.667Z,21.35
2019-05-02T21:45:13.195Z,22.67
2019-05-02T21:47:42.958Z,25.92
2019-05-02T21:50:17.748Z,20.40
2019-05-02T21:53:05.047Z,19.92
2019-05-02T21:55:42.969Z,23.47
2019-05-02T21:58:12.748Z,21.52
2019-05-02T22:00:47.369Z,25.48
2019-05-02T22:03:17.248Z,22.22
2019-05-02T22:05:47.002Z,20.97
2019-05-02T22:08:16.852Z,24.20
2019-05-02T22:10:46.606Z,22.10
2019-05-02T22:13:16.174Z,21.75
2019-05-02T22:15:45.938Z,22.67
2019-05-02T22:18:15.698Z,21.97
2019-05-02T22:20:45.274Z,17.50
2019-05-02T22:23:15.208Z,22.67
2019-05-02T22:25:45.079Z,23.02
2019-05-02T22:28:15.153Z,25.50
2019-05-02T22:30:44.915Z,23.87
2019-05-02T22:33:14.593Z,24.72
2019-05-02T22:35:44.254Z,19.95
2019-05-02T22:38:15.463Z,21.62
2019-05-02T22:40:46.755Z,22.10
2019-05-02T22:43:16.257Z,17.60
2019-05-02T22:45:45.816Z,18.48
2019-05-02T22:48:15.492Z,20.50
2019-05-02T22:50:47.119Z,19.57
2019-05-02T22:53:16.698Z,21.12
2019-05-02T22:55:46.466Z,20.30
2019-05-02T22:58:16.139Z,19.90
2019-05-02T23:00:45.884Z,20.43
2019-05-02T23:03:15.469Z,17.70
2019-05-02T23:05:45.385Z,21.42
2019-05-02T23:08:14.961Z,17.32
2019-05-02T23:10:44.724Z,16.05
2019-05-02T23:13:14.777Z,15.53
2019-05-02T23:15:44.566Z,12.90
2019-05-02T23:18:14.283Z,16.35
2019-05-02T23:20:44.345Z,12.95
2019-05-02T23:23:15.316Z,15.80
2019-05-02T23:26:03.117Z,16.35
2019-05-02T23:28:34.813Z,12.43
2019-05-02T23:31:04.437Z,12.30
2019-05-02T23:33:51.929Z,16.23
2019-05-02T23:36:21.481Z,12.05
2019-05-02T23:38:52.196Z,14.80
2019-05-02T23:41:22.274Z,14.40
2019-05-02T23:43:52.524Z,13.70
2019-05-02T23:46:22.990Z,15.88
2019-05-02T23:48:52.752Z,14.30
2019-05-02T23:51:22.686Z,17.73
2019-05-02T23:53:52.778Z,16.57
2019-05-02T23:56:23.171Z,15.65
2019-05-02T23:58:53.014Z,15.00
